MV Melite — V7TM5 — position and weather

sailwx.info

Track history (hours):
 
Tides and Currents Weather Stations Pressure Air Temp Water Temp Dewpoint Dewpoint Depression Visibility Wind Speed Wind Dir Waves Ship Positions

MV Melite

Last reported at 2017-Jan-13 22:33 UTC. Time now 2017-Jan-17 17:04 UTC.
Position N 29°04' W 014°26'.

Length 225 m; draft 11.5 m.

Type: Cargo ship. MMSI: 538003832.

Date/timePositionNaut miles runAvg speedWind from/ knotsBaromVisibWave heightAir tempDewpointWater temp
2017-Jan-13 22:33N 29°04' W 014°26'1110.6
2017-Jan-13 21:32N 28°56' W 014°34'1110.8
2017-Jan-13 20:33N 28°48' W 014°42'1110.9
2017-Jan-13 19:33N 28°40' W 014°50'1110.9
2017-Jan-13 18:33N 28°32' W 014°58'1111.1
2017-Jan-13 17:33N 28°24' W 015°07'1111.3
2017-Jan-13 16:33N 28°15' W 015°15'1010.2
2017-Jan-13 15:34N 28°07' W 015°23'1 1.3
2017-Jan-13 14:34N 28°06' W 015°24'0 0.0
2017-Jan-13 13:33N 28°06' W 015°24'2 1.8
2017-Jan-13 12:34N 28°07' W 015°22'2 2.4
2017-Jan-13 11:33N 28°05' W 015°20'10 9.7
2017-Jan-13 10:34N 27°57' W 015°14'10 9.9
2017-Jan-13 09:34N 27°47' W 015°17'7 6.1
2017-Jan-13 08:23N 27°40' W 015°19'  
2017-Jan-11 03:32N 18°46' W 018°00'4711.0
2017-Jan-10 23:17N 17°60' W 017°60'18410.9
2017-Jan-10 06:26N 14°56' W 018°01'3010.3
2017-Jan-10 03:32N 14°26' W 017°60'4810.7
2017-Jan-09 23:03N 13°38' W 017°60'  
Track history (hours):
 
Tides and Currents Weather Stations Pressure Air Temp Water Temp Dewpoint Dewpoint Depression Visibility Wind Speed Wind Dir Waves Ship Positions

MV Melite

Last reported at 2017-Jan-13 22:33 UTC. Time now 2017-Jan-17 17:04 UTC.
Position N 29°04' W 014°26'.

Length 225 m; draft 11.5 m.

Type: Cargo ship. MMSI: 538003832.

Date/timePositionNaut miles runAvg speedWind from/ knotsBaromVisibWave heightAir tempDewpointWater temp
2017-Jan-13 22:33N 29°04' W 014°26'1110.6
2017-Jan-13 21:32N 28°56' W 014°34'1110.8
2017-Jan-13 20:33N 28°48' W 014°42'1110.9
2017-Jan-13 19:33N 28°40' W 014°50'1110.9
2017-Jan-13 18:33N 28°32' W 014°58'1111.1
2017-Jan-13 17:33N 28°24' W 015°07'1111.3
2017-Jan-13 16:33N 28°15' W 015°15'1010.2
2017-Jan-13 15:34N 28°07' W 015°23'1 1.3
2017-Jan-13 14:34N 28°06' W 015°24'0 0.0
2017-Jan-13 13:33N 28°06' W 015°24'2 1.8
2017-Jan-13 12:34N 28°07' W 015°22'2 2.4
2017-Jan-13 11:33N 28°05' W 015°20'10 9.7
2017-Jan-13 10:34N 27°57' W 015°14'10 9.9
2017-Jan-13 09:34N 27°47' W 015°17'7 6.1
2017-Jan-13 08:23N 27°40' W 015°19'  
2017-Jan-11 03:32N 18°46' W 018°00'4711.0
2017-Jan-10 23:17N 17°60' W 017°60'18410.9
2017-Jan-10 06:26N 14°56' W 018°01'3010.3
2017-Jan-10 03:32N 14°26' W 017°60'4810.7
2017-Jan-09 23:03N 13°38' W 017°60'  

Dump ship's entire track history